sensor_id;sensor_type;location;lat;lon;timestamp;pressure;altitude;pressure_sealevel;temperature;humidity
58385;BME280;44185;47.844;8.966;2023-03-04T00:01:19;96546.97;;;0.95;100.00
58385;BME280;44185;47.844;8.966;2023-03-04T00:03:44;96552.97;;;0.97;100.00
58385;BME280;44185;47.844;8.966;2023-03-04T00:06:11;96558.06;;;1.01;100.00
58385;BME280;44185;47.844;8.966;2023-03-04T00:08:36;96545.78;;;1.03;100.00
58385;BME280;44185;47.844;8.966;2023-03-04T00:11:02;96548.66;;;0.96;100.00
58385;BME280;44185;47.844;8.966;2023-03-04T00:13:27;96560.38;;;0.86;100.00
58385;BME280;44185;47.844;8.966;2023-03-04T00:15:52;96555.47;;;0.78;100.00
58385;BME280;44185;47.844;8.966;2023-03-04T00:18:19;96562.75;;;0.70;100.00
58385;BME280;44185;47.844;8.966;2023-03-04T00:20:44;96556.00;;;0.65;100.00
58385;BME280;44185;47.844;8.966;2023-03-04T00:23:11;96559.63;;;0.61;100.00
58385;BME280;44185;47.844;8.966;2023-03-04T00:25:36;96564.97;;;0.58;100.00
58385;BME280;44185;47.844;8.966;2023-03-04T00:28:02;96568.13;;;0.44;100.00
58385;BME280;44185;47.844;8.966;2023-03-04T00:30:27;96571.50;;;0.46;100.00
58385;BME280;44185;47.844;8.966;2023-03-04T00:32:53;96572.56;;;0.42;100.00
58385;BME280;44185;47.844;8.966;2023-03-04T00:35:19;96568.47;;;0.35;100.00
58385;BME280;44185;47.844;8.966;2023-03-04T00:37:44;96570.38;;;0.31;100.00
58385;BME280;44185;47.844;8.966;2023-03-04T00:40:12;96565.88;;;0.35;100.00
58385;BME280;44185;47.844;8.966;2023-03-04T00:42:37;96562.97;;;0.20;100.00
58385;BME280;44185;47.844;8.966;2023-03-04T00:45:04;96566.63;;;0.16;100.00
58385;BME280;44185;47.844;8.966;2023-03-04T00:47:30;96569.25;;;-0.08;100.00
58385;BME280;44185;47.844;8.966;2023-03-04T00:49:55;96561.38;;;-0.07;100.00
58385;BME280;44185;47.844;8.966;2023-03-04T00:52:20;96560.09;;;-0.19;100.00
58385;BME280;44185;47.844;8.966;2023-03-04T00:54:46;96563.09;;;-0.30;100.00
58385;BME280;44185;47.844;8.966;2023-03-04T00:57:13;96568.00;;;-0.46;100.00
58385;BME280;44185;47.844;8.966;2023-03-04T00:59:38;96562.59;;;-0.65;100.00
58385;BME280;44185;47.844;8.966;2023-03-04T01:02:04;96569.91;;;-0.51;100.00
58385;BME280;44185;47.844;8.966;2023-03-04T01:04:29;96572.34;;;-0.47;100.00
58385;BME280;44185;47.844;8.966;2023-03-04T01:06:54;96566.41;;;-0.50;100.00
58385;BME280;44185;47.844;8.966;2023-03-04T01:09:20;96567.16;;;-0.47;100.00
58385;BME280;44185;47.844;8.966;2023-03-04T01:11:45;96562.34;;;-0.58;100.00
58385;BME280;44185;47.844;8.966;2023-03-04T01:14:12;96557.19;;;-0.59;100.00
58385;BME280;44185;47.844;8.966;2023-03-04T01:16:37;96558.06;;;-0.59;100.00
58385;BME280;44185;47.844;8.966;2023-03-04T01:19:04;96558.94;;;-0.60;100.00
58385;BME280;44185;47.844;8.966;2023-03-04T01:21:29;96553.81;;;-0.61;100.00
58385;BME280;44185;47.844;8.966;2023-03-04T01:23:55;96560.97;;;-0.68;100.00
58385;BME280;44185;47.844;8.966;2023-03-04T01:26:20;96553.78;;;-0.85;100.00
58385;BME280;44185;47.844;8.966;2023-03-04T01:28:46;96551.91;;;-1.07;100.00
58385;BME280;44185;47.844;8.966;2023-03-04T01:31:12;96547.78;;;-1.13;100.00
58385;BME280;44185;47.844;8.966;2023-03-04T01:33:38;96539.78;;;-1.07;100.00
58385;BME280;44185;47.844;8.966;2023-03-04T01:36:04;96547.88;;;-1.16;100.00
58385;BME280;44185;47.844;8.966;2023-03-04T01:38:29;96545.25;;;-1.15;100.00
58385;BME280;44185;47.844;8.966;2023-03-04T01:40:55;96538.31;;;-1.14;100.00
58385;BME280;44185;47.844;8.966;2023-03-04T01:43:23;96538.41;;;-1.17;100.00
58385;BME280;44185;47.844;8.966;2023-03-04T01:45:50;96535.94;;;-1.22;100.00
58385;BME280;44185;47.844;8.966;2023-03-04T01:48:21;96544.03;;;-1.31;100.00
58385;BME280;44185;47.844;8.966;2023-03-04T01:50:49;96546.59;;;-1.30;100.00
58385;BME280;44185;47.844;8.966;2023-03-04T01:53:18;96537.81;;;-1.26;100.00
58385;BME280;44185;47.844;8.966;2023-03-04T01:55:44;96536.31;;;-1.33;100.00
58385;BME280;44185;47.844;8.966;2023-03-04T01:58:11;96540.00;;;-1.40;100.00
58385;BME280;44185;47.844;8.966;2023-03-04T02:00:37;96538.22;;;-1.38;100.00
58385;BME280;44185;47.844;8.966;2023-03-04T02:03:05;96536.25;;;-1.59;100.00
58385;BME280;44185;47.844;8.966;2023-03-04T02:05:33;96534.84;;;-1.69;100.00
58385;BME280;44185;47.844;8.966;2023-03-04T02:08:00;96533.97;;;-1.68;100.00
58385;BME280;44185;47.844;8.966;2023-03-04T02:10:27;96527.13;;;-1.71;100.00
58385;BME280;44185;47.844;8.966;2023-03-04T02:12:53;96530.94;;;-1.83;100.00
58385;BME280;44185;47.844;8.966;2023-03-04T02:15:19;96528.09;;;-1.75;100.00
58385;BME280;44185;47.844;8.966;2023-03-04T02:17:44;96528.97;;;-1.74;100.00
58385;BME280;44185;47.844;8.966;2023-03-04T02:20:17;96521.88;;;-1.69;100.00
58385;BME280;44185;47.844;8.966;2023-03-04T02:22:48;96520.53;;;-1.81;100.00
58385;BME280;44185;47.844;8.966;2023-03-04T02:25:21;96519.53;;;-1.77;100.00
58385;BME280;44185;47.844;8.966;2023-03-04T02:27:49;96522.81;;;-1.72;100.00
58385;BME280;44185;47.844;8.966;2023-03-04T02:30:16;96525.06;;;-1.88;100.00
58385;BME280;44185;47.844;8.966;2023-03-04T02:32:42;96516.47;;;-1.90;100.00
58385;BME280;44185;47.844;8.966;2023-03-04T02:35:13;96517.25;;;-1.86;100.00
58385;BME280;44185;47.844;8.966;2023-03-04T02:37:40;96519.78;;;-1.85;100.00
58385;BME280;44185;47.844;8.966;2023-03-04T02:40:11;96520.88;;;-1.92;100.00
58385;BME280;44185;47.844;8.966;2023-03-04T02:42:38;96508.94;;;-1.98;100.00
58385;BME280;44185;47.844;8.966;2023-03-04T02:47:46;96512.31;;;-1.96;100.00
58385;BME280;44185;47.844;8.966;2023-03-04T02:50:12;96504.78;;;-2.04;100.00
58385;BME280;44185;47.844;8.966;2023-03-04T02:52:37;96514.38;;;-2.06;100.00
58385;BME280;44185;47.844;8.966;2023-03-04T02:55:03;96507.22;;;-2.28;100.00
58385;BME280;44185;47.844;8.966;2023-03-04T02:57:29;96505.16;;;-2.16;100.00
58385;BME280;44185;47.844;8.966;2023-03-04T02:59:54;96505.47;;;-2.26;100.00
58385;BME280;44185;47.844;8.966;2023-03-04T03:02:21;96503.75;;;-2.27;100.00
58385;BME280;44185;47.844;8.966;2023-03-04T03:04:46;96502.03;;;-2.28;100.00
58385;BME280;44185;47.844;8.966;2023-03-04T03:07:12;96501.97;;;-2.25;100.00
58385;BME280;44185;47.844;8.966;2023-03-04T03:09:37;96505.41;;;-2.24;100.00
58385;BME280;44185;47.844;8.966;2023-03-04T03:12:03;96497.94;;;-2.35;100.00
58385;BME280;44185;47.844;8.966;2023-03-04T03:14:28;96494.50;;;-2.36;100.00
58385;BME280;44185;47.844;8.966;2023-03-04T03:16:54;96497.00;;;-2.32;100.00
58385;BME280;44185;47.844;8.966;2023-03-04T03:19:21;96498.75;;;-2.33;100.00
58385;BME280;44185;47.844;8.966;2023-03-04T03:21:46;96501.09;;;-2.25;100.00
58385;BME280;44185;47.844;8.966;2023-03-04T03:24:11;96505.16;;;-2.16;100.00
58385;BME280;44185;47.844;8.966;2023-03-04T03:26:37;96507.00;;;-2.20;100.00
58385;BME280;44185;47.844;8.966;2023-03-04T03:29:02;96508.09;;;-2.27;100.00
58385;BME280;44185;47.844;8.966;2023-03-04T03:31:28;96510.13;;;-2.37;100.00
58385;BME280;44185;47.844;8.966;2023-03-04T03:33:53;96503.06;;;-2.33;100.00
58385;BME280;44185;47.844;8.966;2023-03-04T03:36:20;96514.50;;;-2.39;100.00
58385;BME280;44185;47.844;8.966;2023-03-04T03:38:45;96507.69;;;-2.43;100.00
58385;BME280;44185;47.844;8.966;2023-03-04T03:41:11;96503.53;;;-2.49;100.00
58385;BME280;44185;47.844;8.966;2023-03-04T03:43:36;96511.22;;;-2.46;100.00
58385;BME280;44185;47.844;8.966;2023-03-04T03:46:02;96507.88;;;-2.50;100.00
58385;BME280;44185;47.844;8.966;2023-03-04T03:48:27;96507.97;;;-2.53;100.00
58385;BME280;44185;47.844;8.966;2023-03-04T03:50:52;96505.41;;;-2.54;100.00
58385;BME280;44185;47.844;8.966;2023-03-04T03:53:20;96506.63;;;-2.66;100.00
58385;BME280;44185;47.844;8.966;2023-03-04T03:55:45;96498.91;;;-2.68;100.00
58385;BME280;44185;47.844;8.966;2023-03-04T03:58:11;96501.53;;;-2.70;100.00
58385;BME280;44185;47.844;8.966;2023-03-04T04:00:36;96497.22;;;-2.71;100.00
58385;BME280;44185;47.844;8.966;2023-03-04T04:03:02;96498.06;;;-2.69;100.00
58385;BME280;44185;47.844;8.966;2023-03-04T04:05:27;96498.78;;;-2.63;100.00
58385;BME280;44185;47.844;8.966;2023-03-04T04:07:53;96495.38;;;-2.65;100.00
58385;BME280;44185;47.844;8.966;2023-03-04T04:10:20;96503.25;;;-2.70;100.00
58385;BME280;44185;47.844;8.966;2023-03-04T04:12:45;96503.78;;;-2.89;100.00
58385;BME280;44185;47.844;8.966;2023-03-04T04:15:11;96497.84;;;-2.93;100.00
58385;BME280;44185;47.844;8.966;2023-03-04T04:17:37;96505.34;;;-2.83;100.00
58385;BME280;44185;47.844;8.966;2023-03-04T04:20:03;96510.81;;;-2.94;100.00
58385;BME280;44185;47.844;8.966;2023-03-04T04:22:28;96505.44;;;-2.86;100.00
58385;BME280;44185;47.844;8.966;2023-03-04T04:24:54;96508.78;;;-2.83;100.00
58385;BME280;44185;47.844;8.966;2023-03-04T04:27:20;96507.50;;;-2.99;100.00
58385;BME280;44185;47.844;8.966;2023-03-04T04:29:46;96510.06;;;-2.98;100.00
58385;BME280;44185;47.844;8.966;2023-03-04T04:32:11;96508.50;;;-3.04;100.00
58385;BME280;44185;47.844;8.966;2023-03-04T04:34:37;96507.63;;;-3.04;100.00
58385;BME280;44185;47.844;8.966;2023-03-04T04:37:02;96505.06;;;-3.04;100.00
58385;BME280;44185;47.844;8.966;2023-03-04T04:39:28;96504.16;;;-3.03;100.00
58385;BME280;44185;47.844;8.966;2023-03-04T04:41:53;96511.72;;;-2.95;100.00
58385;BME280;44185;47.844;8.966;2023-03-04T04:44:20;96508.22;;;-2.93;100.00
58385;BME280;44185;47.844;8.966;2023-03-04T04:46:45;96514.25;;;-2.94;100.00
58385;BME280;44185;47.844;8.966;2023-03-04T04:49:11;96521.28;;;-2.97;100.00
58385;BME280;44185;47.844;8.966;2023-03-04T04:51:37;96521.38;;;-3.00;100.00
58385;BME280;44185;47.844;8.966;2023-03-04T04:54:03;96523.97;;;-3.02;100.00
58385;BME280;44185;47.844;8.966;2023-03-04T04:56:29;96521.56;;;-3.08;100.00
58385;BME280;44185;47.844;8.966;2023-03-04T04:58:56;96521.56;;;-3.08;100.00
58385;BME280;44185;47.844;8.966;2023-03-04T05:01:24;96524.25;;;-3.11;100.00
58385;BME280;44185;47.844;8.966;2023-03-04T05:03:50;96527.69;;;-3.13;100.00
58385;BME280;44185;47.844;8.966;2023-03-04T05:06:15;96527.75;;;-3.14;100.00
58385;BME280;44185;47.844;8.966;2023-03-04T05:08:41;96532.94;;;-3.14;100.00
58385;BME280;44185;47.844;8.966;2023-03-04T05:11:07;96537.47;;;-3.22;100.00
58385;BME280;44185;47.844;8.966;2023-03-04T05:13:33;96536.47;;;-3.18;100.00
58385;BME280;44185;47.844;8.966;2023-03-04T05:15:58;96529.94;;;-3.32;100.00
58385;BME280;44185;47.844;8.966;2023-03-04T05:18:26;96534.56;;;-3.45;100.00
58385;BME280;44185;47.844;8.966;2023-03-04T05:20:52;96528.19;;;-3.66;100.00
58385;BME280;44185;47.844;8.966;2023-03-04T05:23:19;96532.31;;;-3.59;100.00
58385;BME280;44185;47.844;8.966;2023-03-04T05:25:44;96526.88;;;-3.48;100.00
58385;BME280;44185;47.844;8.966;2023-03-04T05:28:10;96531.94;;;-3.43;100.00
58385;BME280;44185;47.844;8.966;2023-03-04T05:30:35;96523.97;;;-3.36;100.00
58385;BME280;44185;47.844;8.966;2023-03-04T05:33:01;96528.16;;;-3.30;100.00
58385;BME280;44185;47.844;8.966;2023-03-04T05:35:27;96522.13;;;-3.30;100.00
58385;BME280;44185;47.844;8.966;2023-03-04T05:37:53;96523.84;;;-3.31;100.00
58385;BME280;44185;47.844;8.966;2023-03-04T05:40:19;96522.19;;;-3.32;100.00
58385;BME280;44185;47.844;8.966;2023-03-04T05:42:44;96525.66;;;-3.33;100.00
58385;BME280;44185;47.844;8.966;2023-03-04T05:45:10;96522.41;;;-3.41;100.00
58385;BME280;44185;47.844;8.966;2023-03-04T05:47:36;96525.78;;;-3.38;100.00
58385;BME280;44185;47.844;8.966;2023-03-04T05:50:01;96523.94;;;-3.34;100.00
58385;BME280;44185;47.844;8.966;2023-03-04T05:52:28;96526.84;;;-3.47;100.00
58385;BME280;44185;47.844;8.966;2023-03-04T05:54:53;96532.06;;;-3.48;100.00
58385;BME280;44185;47.844;8.966;2023-03-04T05:57:19;96539.09;;;-3.55;100.00
58385;BME280;44185;47.844;8.966;2023-03-04T05:59:44;96536.63;;;-3.60;100.00
58385;BME280;44185;47.844;8.966;2023-03-04T06:02:10;96526.25;;;-3.58;100.00
58385;BME280;44185;47.844;8.966;2023-03-04T06:04:35;96539.09;;;-3.55;100.00
58385;BME280;44185;47.844;8.966;2023-03-04T06:07:01;96534.78;;;-3.54;100.00
58385;BME280;44185;47.844;8.966;2023-03-04T06:09:27;96541.69;;;-3.53;100.00
58385;BME280;44185;47.844;8.966;2023-03-04T06:11:53;96541.88;;;-3.61;100.00
58385;BME280;44185;47.844;8.966;2023-03-04T06:14:19;96548.16;;;-3.73;100.00
58385;BME280;44185;47.844;8.966;2023-03-04T06:16:44;96553.13;;;-3.64;100.00
58385;BME280;44185;47.844;8.966;2023-03-04T06:19:09;96550.31;;;-3.54;100.00
58385;BME280;44185;47.844;8.966;2023-03-04T06:21:35;96550.31;;;-3.54;100.00
58385;BME280;44185;47.844;8.966;2023-03-04T06:24:00;96559.81;;;-3.55;100.00
58385;BME280;44185;47.844;8.966;2023-03-04T06:26:27;96566.13;;;-3.67;100.00
58385;BME280;44185;47.844;8.966;2023-03-04T06:28:52;96566.31;;;-3.75;100.00
58385;BME280;44185;47.844;8.966;2023-03-04T06:31:18;96568.78;;;-3.70;100.00
58385;BME280;44185;47.844;8.966;2023-03-04T06:33:43;96564.38;;;-3.65;100.00
58385;BME280;44185;47.844;8.966;2023-03-04T06:36:09;96571.16;;;-3.61;100.00
58385;BME280;44185;47.844;8.966;2023-03-04T06:38:34;96576.44;;;-3.65;100.00
58385;BME280;44185;47.844;8.966;2023-03-04T06:41:05;96573.84;;;-3.64;100.00
58385;BME280;44185;47.844;8.966;2023-03-04T06:43:32;96583.91;;;-3.53;100.00
58385;BME280;44185;47.844;8.966;2023-03-04T06:45:57;96572.41;;;-3.41;100.00
58385;BME280;44185;47.844;8.966;2023-03-04T06:48:23;96573.22;;;-3.39;100.00
58385;BME280;44185;47.844;8.966;2023-03-04T06:50:49;96573.16;;;-3.36;100.00
58385;BME280;44185;47.844;8.966;2023-03-04T06:53:14;96574.00;;;-3.35;100.00
58385;BME280;44185;47.844;8.966;2023-03-04T06:55:39;96580.59;;;-3.23;100.00
58385;BME280;44185;47.844;8.966;2023-03-04T06:58:05;96579.63;;;-3.17;100.00
58385;BME280;44185;47.844;8.966;2023-03-04T07:00:32;96582.84;;;-3.09;100.00
58385;BME280;44185;47.844;8.966;2023-03-04T07:02:57;96583.53;;;-3.02;100.00
58385;BME280;44185;47.844;8.966;2023-03-04T07:05:23;96579.91;;;-2.95;100.00
58385;BME280;44185;47.844;8.966;2023-03-04T07:07:49;96584.91;;;-2.88;100.00
58385;BME280;44185;47.844;8.966;2023-03-04T07:10:14;96585.63;;;-2.82;100.00
58385;BME280;44185;47.844;8.966;2023-03-04T07:12:39;96587.97;;;-2.72;100.00
58385;BME280;44185;47.844;8.966;2023-03-04T07:15:06;96579.16;;;-2.66;100.00
58385;BME280;44185;47.844;8.966;2023-03-04T07:17:33;96589.31;;;-2.59;100.00
58385;BME280;44185;47.844;8.966;2023-03-04T07:19:58;96584.59;;;-2.44;100.00
58385;BME280;44185;47.844;8.966;2023-03-04T07:22:23;96591.31;;;-2.37;100.00
58385;BME280;44185;47.844;8.966;2023-03-04T07:24:49;96588.59;;;-2.32;100.00
58385;BME280;44185;47.844;8.966;2023-03-04T07:27:14;96594.44;;;-2.25;100.00
58385;BME280;44185;47.844;8.966;2023-03-04T07:29:40;96595.94;;;-2.16;100.00
58385;BME280;44185;47.844;8.966;2023-03-04T07:32:06;96605.13;;;-2.06;100.00
58385;BME280;44185;47.844;8.966;2023-03-04T07:34:33;96592.75;;;-1.96;100.00
58385;BME280;44185;47.844;8.966;2023-03-04T07:36:59;96593.53;;;-1.94;100.00
58385;BME280;44185;47.844;8.966;2023-03-04T07:39:24;96589.97;;;-1.90;100.00
58385;BME280;44185;47.844;8.966;2023-03-04T07:41:50;96586.44;;;-1.87;100.00
58385;BME280;44185;47.844;8.966;2023-03-04T07:44:15;96588.78;;;-1.79;100.00
58385;BME280;44185;47.844;8.966;2023-03-04T07:46:40;96586.97;;;-1.75;100.00
58385;BME280;44185;47.844;8.966;2023-03-04T07:49:06;96590.91;;;-1.63;100.00
58385;BME280;44185;47.844;8.966;2023-03-04T07:51:33;96592.31;;;-1.53;100.00
58385;BME280;44185;47.844;8.966;2023-03-04T07:53:59;96597.13;;;-1.40;100.00
58385;BME280;44185;47.844;8.966;2023-03-04T07:56:27;96594.41;;;-1.36;100.00
58385;BME280;44185;47.844;8.966;2023-03-04T07:58:53;96605.25;;;-1.24;100.00
58385;BME280;44185;47.844;8.966;2023-03-04T08:01:21;96600.06;;;-1.24;100.00
58385;BME280;44185;47.844;8.966;2023-03-04T08:03:47;96601.53;;;-1.15;100.00
58385;BME280;44185;47.844;8.966;2023-03-04T08:06:14;96605.56;;;-1.06;100.00
58385;BME280;44185;47.844;8.966;2023-03-04T08:08:42;96600.06;;;-0.97;100.00
58385;BME280;44185;47.844;8.966;2023-03-04T08:11:10;96598.00;;;-0.87;100.00
58385;BME280;44185;47.844;8.966;2023-03-04T08:13:36;96602.88;;;-0.77;100.00
58385;BME280;44185;47.844;8.966;2023-03-04T08:16:02;96595.78;;;-0.72;100.00
58385;BME280;44185;47.844;8.966;2023-03-04T08:18:27;96592.84;;;-0.63;100.00
58385;BME280;44185;47.844;8.966;2023-03-04T08:20:53;96597.66;;;-0.52;100.00
58385;BME280;44185;47.844;8.966;2023-03-04T08:23:19;96605.94;;;-0.40;100.00
58385;BME280;44185;47.844;8.966;2023-03-04T08:25:46;96599.50;;;-0.30;100.00
58385;BME280;44185;47.844;8.966;2023-03-04T08:28:12;96600.91;;;-0.21;100.00
58385;BME280;44185;47.844;8.966;2023-03-04T08:30:38;96594.69;;;-0.17;100.00
58385;BME280;44185;47.844;8.966;2023-03-04T08:33:04;96590.66;;;-0.02;100.00
58385;BME280;44185;47.844;8.966;2023-03-04T08:35:31;96592.75;;;0.13;100.00
58385;BME280;44185;47.844;8.966;2023-03-04T08:37:56;96592.28;;;0.25;100.00
58385;BME280;44185;47.844;8.966;2023-03-04T08:40:22;96586.69;;;0.35;100.00
58385;BME280;44185;47.844;8.966;2023-03-04T08:42:49;96589.84;;;0.43;100.00
58385;BME280;44185;47.844;8.966;2023-03-04T08:45:14;96586.94;;;0.51;100.00
58385;BME280;44185;47.844;8.966;2023-03-04T08:47:40;96594.22;;;0.65;100.00
58385;BME280;44185;47.844;8.966;2023-03-04T08:50:06;96594.03;;;0.70;100.00
58385;BME280;44185;47.844;8.966;2023-03-04T08:52:32;96595.41;;;0.79;100.00
58385;BME280;44185;47.844;8.966;2023-03-04T08:54:57;96589.66;;;0.93;100.00
58385;BME280;44185;47.844;8.966;2023-03-04T08:57:23;96583.13;;;1.03;100.00
58385;BME280;44185;47.844;8.966;2023-03-04T08:59:50;96586.97;;;1.15;100.00
58385;BME280;44185;47.844;8.966;2023-03-04T09:02:15;96596.09;;;1.26;100.00
58385;BME280;44185;47.844;8.966;2023-03-04T09:04:41;96592.47;;;1.30;100.00
58385;BME280;44185;47.844;8.966;2023-03-04T09:07:06;96590.16;;;1.43;100.00
58385;BME280;44185;47.844;8.966;2023-03-04T09:09:32;96591.50;;;1.52;100.00
58385;BME280;44185;47.844;8.966;2023-03-04T09:11:57;96594.06;;;1.53;100.00
58385;BME280;44185;47.844;8.966;2023-03-04T09:14:23;96597.03;;;1.65;100.00
58385;BME280;44185;47.844;8.966;2023-03-04T09:16:50;96587.88;;;1.75;100.00
58385;BME280;44185;47.844;8.966;2023-03-04T09:19:15;96591.00;;;1.84;100.00
58385;BME280;44185;47.844;8.966;2023-03-04T09:21:41;96585.44;;;1.92;100.00
58385;BME280;44185;47.844;8.966;2023-03-04T09:24:06;96584.81;;;2.06;100.00
58385;BME280;44185;47.844;8.966;2023-03-04T09:26:32;96580.09;;;2.14;100.00
58385;BME280;44185;47.844;8.966;2023-03-04T09:28:59;96584.94;;;2.22;100.00
58385;BME280;44185;47.844;8.966;2023-03-04T09:31:26;96587.91;;;2.33;100.00
58385;BME280;44185;47.844;8.966;2023-03-04T09:33:54;96584.84;;;2.43;100.00
58385;BME280;44185;47.844;8.966;2023-03-04T09:36:20;96589.56;;;2.54;100.00
58385;BME280;44185;47.844;8.966;2023-03-04T09:38:46;96583.69;;;2.68;100.00
58385;BME280;44185;47.844;8.966;2023-03-04T09:41:15;96578.00;;;2.77;100.00
58385;BME280;44185;47.844;8.966;2023-03-04T09:43:42;96580.94;;;3.07;98.48
58385;BME280;44185;47.844;8.966;2023-03-04T09:46:12;96584.63;;;3.20;98.88
58385;BME280;44185;47.844;8.966;2023-03-04T09:48:43;96579.31;;;3.22;98.76
58385;BME280;44185;47.844;8.966;2023-03-04T09:51:18;96568.06;;;3.38;96.27
58385;BME280;44185;47.844;8.966;2023-03-04T09:53:53;96577.97;;;3.49;98.10
58385;BME280;44185;47.844;8.966;2023-03-04T09:56:24;96574.28;;;3.53;99.21
58385;BME280;44185;47.844;8.966;2023-03-04T09:58:56;96573.53;;;3.67;97.57
58385;BME280;44185;47.844;8.966;2023-03-04T10:01:30;96573.78;;;3.62;95.30
58385;BME280;44185;47.844;8.966;2023-03-04T10:04:02;96568.91;;;3.72;95.19
58385;BME280;44185;47.844;8.966;2023-03-04T10:06:32;96567.34;;;3.86;94.35
58385;BME280;44185;47.844;8.966;2023-03-04T10:09:00;96561.53;;;3.97;94.33
58385;BME280;44185;47.844;8.966;2023-03-04T10:11:29;96563.31;;;4.13;95.58
58385;BME280;44185;47.844;8.966;2023-03-04T10:14:02;96555.34;;;4.30;93.67
58385;BME280;44185;47.844;8.966;2023-03-04T10:16:33;96550.78;;;4.34;90.49
58385;BME280;44185;47.844;8.966;2023-03-04T10:19:05;96552.66;;;4.48;92.00
58385;BME280;44185;47.844;8.966;2023-03-04T10:21:34;96549.41;;;4.59;90.82
58385;BME280;44185;47.844;8.966;2023-03-04T10:24:06;96545.34;;;4.70;90.65
58385;BME280;44185;47.844;8.966;2023-03-04T10:26:35;96548.84;;;4.85;92.38
58385;BME280;44185;47.844;8.966;2023-03-04T10:29:00;96548.19;;;4.81;90.51
58385;BME280;44185;47.844;8.966;2023-03-04T10:31:30;96543.75;;;4.98;91.65
58385;BME280;44185;47.844;8.966;2023-03-04T10:33:56;96537.03;;;5.23;89.96
58385;BME280;44185;47.844;8.966;2023-03-04T10:36:37;96540.78;;;5.33;90.06
58385;BME280;44185;47.844;8.966;2023-03-04T10:39:08;96539.56;;;5.39;88.52
58385;BME280;44185;47.844;8.966;2023-03-04T10:41:34;96537.72;;;5.71;90.76
58385;BME280;44185;47.844;8.966;2023-03-04T10:44:01;96527.69;;;5.63;87.59
58385;BME280;44185;47.844;8.966;2023-03-04T10:46:28;96537.25;;;5.64;88.63
58385;BME280;44185;47.844;8.966;2023-03-04T10:48:54;96531.13;;;5.93;89.82
58385;BME280;44185;47.844;8.966;2023-03-04T10:51:21;96537.69;;;6.15;86.09
58385;BME280;44185;47.844;8.966;2023-03-04T10:53:50;96533.34;;;6.28;87.15
58385;BME280;44185;47.844;8.966;2023-03-04T10:56:35;96529.31;;;6.50;89.76
58385;BME280;44185;47.844;8.966;2023-03-04T10:59:28;96521.34;;;6.24;86.85
58385;BME280;44185;47.844;8.966;2023-03-04T11:01:54;96523.94;;;6.39;85.13
58385;BME280;44185;47.844;8.966;2023-03-04T11:04:23;96521.31;;;6.39;84.82
58385;BME280;44185;47.844;8.966;2023-03-04T11:06:49;96522.47;;;6.48;85.20
58385;BME280;44185;47.844;8.966;2023-03-04T11:09:22;96514.28;;;6.39;86.03
58385;BME280;44185;47.844;8.966;2023-03-04T11:11:49;96514.66;;;6.61;86.42
58385;BME280;44185;47.844;8.966;2023-03-04T11:14:20;96514.38;;;6.78;85.73
58385;BME280;44185;47.844;8.966;2023-03-04T11:16:52;96504.59;;;6.81;83.27
58385;BME280;44185;47.844;8.966;2023-03-04T11:19:19;96495.53;;;6.85;85.94
58385;BME280;44185;47.844;8.966;2023-03-04T11:21:48;96497.09;;;6.74;86.06
58385;BME280;44185;47.844;8.966;2023-03-04T11:24:15;96496.47;;;6.71;85.23
58385;BME280;44185;47.844;8.966;2023-03-04T11:26:45;96500.56;;;6.62;83.17
58385;BME280;44185;47.844;8.966;2023-03-04T11:29:14;96498.25;;;6.70;82.81
58385;BME280;44185;47.844;8.966;2023-03-04T11:31:46;96483.91;;;7.02;83.82
58385;BME280;44185;47.844;8.966;2023-03-04T11:34:16;96487.78;;;7.36;82.44
58385;BME280;44185;47.844;8.966;2023-03-04T11:36:51;96482.84;;;7.18;81.50
58385;BME280;44185;47.844;8.966;2023-03-04T11:39:23;96484.88;;;7.40;82.12
58385;BME280;44185;47.844;8.966;2023-03-04T11:41:57;96477.88;;;7.52;80.97
58385;BME280;44185;47.844;8.966;2023-03-04T11:44:24;96477.75;;;7.80;78.96
58385;BME280;44185;47.844;8.966;2023-03-04T11:47:13;96468.28;;;7.51;79.41
58385;BME280;44185;47.844;8.966;2023-03-04T11:50:04;96468.72;;;7.58;77.86
58385;BME280;44185;47.844;8.966;2023-03-04T11:52:47;96468.81;;;7.70;77.48
58385;BME280;44185;47.844;8.966;2023-03-04T11:55:26;96462.06;;;8.03;79.99
58385;BME280;44185;47.844;8.966;2023-03-04T11:58:01;96457.72;;;7.77;76.05
58385;BME280;44185;47.844;8.966;2023-03-04T12:00:36;96457.13;;;7.98;77.33
58385;BME280;44185;47.844;8.966;2023-03-04T12:03:31;96452.03;;;8.08;78.14
58385;BME280;44185;47.844;8.966;2023-03-04T12:06:04;96452.59;;;8.00;75.81
58385;BME280;44185;47.844;8.966;2023-03-04T12:08:45;96445.25;;;7.93;79.61
58385;BME280;44185;47.844;8.966;2023-03-04T12:11:25;96434.16;;;8.25;76.76
58385;BME280;44185;47.844;8.966;2023-03-04T12:14:10;96435.50;;;8.06;75.08
58385;BME280;44185;47.844;8.966;2023-03-04T12:17:04;96432.06;;;7.93;77.00
58385;BME280;44185;47.844;8.966;2023-03-04T12:19:45;96426.56;;;8.45;77.15
58385;BME280;44185;47.844;8.966;2023-03-04T12:22:29;96427.34;;;8.59;77.20
58385;BME280;44185;47.844;8.966;2023-03-04T12:28:18;96414.66;;;8.39;73.60
58385;BME280;44185;47.844;8.966;2023-03-04T12:30:56;96408.81;;;8.47;76.31
58385;BME280;44185;47.844;8.966;2023-03-04T12:33:30;96405.31;;;8.60;74.70
58385;BME280;44185;47.844;8.966;2023-03-04T12:36:04;96405.09;;;8.74;72.97
58385;BME280;44185;47.844;8.966;2023-03-04T12:38:44;96399.44;;;8.79;75.93
58385;BME280;44185;47.844;8.966;2023-03-04T12:41:24;96403.44;;;8.96;75.43
58385;BME280;44185;47.844;8.966;2023-03-04T12:43:59;96396.63;;;9.17;75.57
58385;BME280;44185;47.844;8.966;2023-03-04T12:46:41;96392.41;;;8.91;74.46
58385;BME280;44185;47.844;8.966;2023-03-04T12:49:31;96390.34;;;8.95;71.14
58385;BME280;44185;47.844;8.966;2023-03-04T12:52:05;96382.88;;;8.65;72.37
58385;BME280;44185;47.844;8.966;2023-03-04T12:54:38;96383.13;;;8.62;74.59
58385;BME280;44185;47.844;8.966;2023-03-04T12:57:08;96380.72;;;8.71;74.32
58385;BME280;44185;47.844;8.966;2023-03-04T12:59:36;96378.88;;;9.07;75.81
58385;BME280;44185;47.844;8.966;2023-03-04T13:05:21;96372.00;;;8.70;75.85
58385;BME280;44185;47.844;8.966;2023-03-04T13:07:54;96372.94;;;8.69;73.13
58385;BME280;44185;47.844;8.966;2023-03-04T13:10:22;96368.44;;;8.58;75.55